sensor_id;sensor_type;location;lat;lon;timestamp;temperature;humidity
108;DHT22;49;48.530;9.200;2023-04-24T00:36:12;15.90;1.00
108;DHT22;49;48.530;9.200;2023-04-24T00:38:39;16.00;1.00
108;DHT22;49;48.530;9.200;2023-04-24T00:48:48;16.40;1.00
108;DHT22;49;48.530;9.200;2023-04-24T01:14:02;16.40;1.00
108;DHT22;49;48.530;9.200;2023-04-24T02:46:53;15.70;1.00
108;DHT22;49;48.530;9.200;2023-04-24T04:17:45;15.30;1.00
108;DHT22;49;48.530;9.200;2023-04-24T04:55:30;15.10;1.00
108;DHT22;49;48.530;9.200;2023-04-24T07:07:29;22.20;1.00
108;DHT22;49;48.530;9.200;2023-04-24T08:18:11;19.10;1.00
108;DHT22;49;48.530;9.200;2023-04-24T08:23:17;18.90;1.00
108;DHT22;49;48.530;9.200;2023-04-24T08:28:19;17.40;1.00
108;DHT22;49;48.530;9.200;2023-04-24T08:41:02;15.60;1.00
108;DHT22;49;48.530;9.200;2023-04-24T09:16:26;17.10;1.00
108;DHT22;49;48.530;9.200;2023-04-24T09:24:14;17.30;1.00
108;DHT22;49;48.530;9.200;2023-04-24T09:29:16;17.20;1.00
108;DHT22;49;48.530;9.200;2023-04-24T09:45:08;18.40;1.00
108;DHT22;49;48.530;9.200;2023-04-24T09:50:15;17.80;1.00
108;DHT22;49;48.530;9.200;2023-04-24T09:52:44;17.50;1.00
108;DHT22;49;48.530;9.200;2023-04-24T10:05:23;17.60;1.00
108;DHT22;49;48.530;9.200;2023-04-24T10:07:50;18.20;1.00
108;DHT22;49;48.530;9.200;2023-04-24T10:12:53;17.70;1.00
108;DHT22;49;48.530;9.200;2023-04-24T10:20:26;16.90;1.00
108;DHT22;49;48.530;9.200;2023-04-24T10:22:55;16.70;1.00
108;DHT22;49;48.530;9.200;2023-04-24T10:25:23;16.70;1.00
108;DHT22;49;48.530;9.200;2023-04-24T10:35:39;16.80;1.00
108;DHT22;49;48.530;9.200;2023-04-24T10:38:11;17.00;1.00
108;DHT22;49;48.530;9.200;2023-04-24T10:40:42;17.20;1.00
108;DHT22;49;48.530;9.200;2023-04-24T10:48:15;17.70;1.00
108;DHT22;49;48.530;9.200;2023-04-24T10:50:45;17.60;1.00
108;DHT22;49;48.530;9.200;2023-04-24T10:58:23;17.30;1.00
108;DHT22;49;48.530;9.200;2023-04-24T11:03:25;17.10;1.00
108;DHT22;49;48.530;9.200;2023-04-24T11:16:20;17.10;1.00
108;DHT22;49;48.530;9.200;2023-04-24T11:21:17;17.50;1.00
108;DHT22;49;48.530;9.200;2023-04-24T11:23:44;17.60;1.00
108;DHT22;49;48.530;9.200;2023-04-24T11:26:12;17.10;1.00
108;DHT22;49;48.530;9.200;2023-04-24T11:31:35;17.10;1.00
108;DHT22;49;48.530;9.200;2023-04-24T11:36:32;16.70;1.00
108;DHT22;49;48.530;9.200;2023-04-24T11:39:00;17.00;1.00
108;DHT22;49;48.530;9.200;2023-04-24T11:41:28;17.10;1.00
108;DHT22;49;48.530;9.200;2023-04-24T11:43:56;17.20;1.00
108;DHT22;49;48.530;9.200;2023-04-24T11:46:27;17.00;1.00
108;DHT22;49;48.530;9.200;2023-04-24T11:48:57;17.10;1.00
108;DHT22;49;48.530;9.200;2023-04-24T11:51:25;17.00;1.00
108;DHT22;49;48.530;9.200;2023-04-24T11:56:22;16.50;1.00
108;DHT22;49;48.530;9.200;2023-04-24T12:01:24;16.60;1.00
108;DHT22;49;48.530;9.200;2023-04-24T12:11:55;17.60;1.00
108;DHT22;49;48.530;9.200;2023-04-24T12:14:24;17.50;1.00
108;DHT22;49;48.530;9.200;2023-04-24T12:16:51;17.80;1.00
108;DHT22;49;48.530;9.200;2023-04-24T12:19:20;17.40;1.00
108;DHT22;49;48.530;9.200;2023-04-24T12:24:23;16.70;1.00
108;DHT22;49;48.530;9.200;2023-04-24T12:29:37;16.60;1.00
108;DHT22;49;48.530;9.200;2023-04-24T12:34:40;16.70;1.00
108;DHT22;49;48.530;9.200;2023-04-24T12:37:10;16.80;1.00
108;DHT22;49;48.530;9.200;2023-04-24T12:39:38;16.90;1.00
108;DHT22;49;48.530;9.200;2023-04-24T12:42:05;16.60;1.00
108;DHT22;49;48.530;9.200;2023-04-24T12:47:03;16.20;1.00
108;DHT22;49;48.530;9.200;2023-04-24T12:49:31;16.20;1.00
108;DHT22;49;48.530;9.200;2023-04-24T12:51:58;16.30;1.00
108;DHT22;49;48.530;9.200;2023-04-24T12:56:59;17.10;1.00
108;DHT22;49;48.530;9.200;2023-04-24T12:59:27;17.20;1.00
108;DHT22;49;48.530;9.200;2023-04-24T13:01:56;17.50;1.00
108;DHT22;49;48.530;9.200;2023-04-24T13:04:25;17.70;1.00
108;DHT22;49;48.530;9.200;2023-04-24T13:06:54;17.80;1.00
108;DHT22;49;48.530;9.200;2023-04-24T13:09:22;17.40;1.00
108;DHT22;49;48.530;9.200;2023-04-24T13:16:45;17.10;1.00
108;DHT22;49;48.530;9.200;2023-04-24T13:19:15;16.90;1.00
108;DHT22;49;48.530;9.200;2023-04-24T13:21:44;16.90;1.00
108;DHT22;49;48.530;9.200;2023-04-24T13:26:46;16.60;1.00
108;DHT22;49;48.530;9.200;2023-04-24T13:29:13;16.70;1.00
108;DHT22;49;48.530;9.200;2023-04-24T13:31:40;16.40;1.00
108;DHT22;49;48.530;9.200;2023-04-24T13:34:08;16.10;1.00
108;DHT22;49;48.530;9.200;2023-04-24T13:54:28;17.20;1.00
108;DHT22;49;48.530;9.200;2023-04-24T13:56:58;16.90;1.00
108;DHT22;49;48.530;9.200;2023-04-24T13:59:28;16.90;1.00
108;DHT22;49;48.530;9.200;2023-04-24T14:01:55;17.00;1.00
108;DHT22;49;48.530;9.200;2023-04-24T14:12:02;17.30;1.00
108;DHT22;49;48.530;9.200;2023-04-24T14:14:30;17.60;1.00
108;DHT22;49;48.530;9.200;2023-04-24T14:19:26;17.30;1.00
108;DHT22;49;48.530;9.200;2023-04-24T14:24:22;17.00;1.00
108;DHT22;49;48.530;9.200;2023-04-24T14:26:49;16.60;1.00
108;DHT22;49;48.530;9.200;2023-04-24T14:34:20;16.10;1.00
108;DHT22;49;48.530;9.200;2023-04-24T14:36:47;16.00;1.00
108;DHT22;49;48.530;9.200;2023-04-24T14:41:51;16.10;1.00
108;DHT22;49;48.530;9.200;2023-04-24T14:44:18;16.40;1.00
108;DHT22;49;48.530;9.200;2023-04-24T14:49:18;16.70;1.00
108;DHT22;49;48.530;9.200;2023-04-24T14:51:50;16.60;1.00
108;DHT22;49;48.530;9.200;2023-04-24T14:54:18;16.40;1.00
108;DHT22;49;48.530;9.200;2023-04-24T14:56:48;16.50;1.00
108;DHT22;49;48.530;9.200;2023-04-24T15:01:51;16.30;1.00
108;DHT22;49;48.530;9.200;2023-04-24T15:07:05;16.50;1.00
108;DHT22;49;48.530;9.200;2023-04-24T15:22:18;16.60;1.00
108;DHT22;49;48.530;9.200;2023-04-24T15:27:23;16.90;1.00
108;DHT22;49;48.530;9.200;2023-04-24T15:34:54;16.80;1.00
108;DHT22;49;48.530;9.200;2023-04-24T15:37:24;17.10;1.00
108;DHT22;49;48.530;9.200;2023-04-24T15:39:53;17.40;1.00
108;DHT22;49;48.530;9.200;2023-04-24T15:42:21;17.60;1.00
108;DHT22;49;48.530;9.200;2023-04-24T15:44:49;17.70;1.00
108;DHT22;49;48.530;9.200;2023-04-24T15:47:16;17.40;1.00
108;DHT22;49;48.530;9.200;2023-04-24T15:49:43;17.40;1.00
108;DHT22;49;48.530;9.200;2023-04-24T15:54:58;17.60;1.00
108;DHT22;49;48.530;9.200;2023-04-24T15:57:26;17.60;1.00
108;DHT22;49;48.530;9.200;2023-04-24T15:59:53;17.60;1.00
108;DHT22;49;48.530;9.200;2023-04-24T16:04:56;17.50;1.00
108;DHT22;49;48.530;9.200;2023-04-24T16:10:04;17.30;1.00
108;DHT22;49;48.530;9.200;2023-04-24T16:12:35;17.30;1.00
108;DHT22;49;48.530;9.200;2023-04-24T16:20:13;17.20;1.00
108;DHT22;49;48.530;9.200;2023-04-24T16:22:42;17.20;1.00
108;DHT22;49;48.530;9.200;2023-04-24T16:25:11;17.30;1.00
108;DHT22;49;48.530;9.200;2023-04-24T16:30:16;17.30;1.00
108;DHT22;49;48.530;9.200;2023-04-24T16:32:47;17.20;1.00
108;DHT22;49;48.530;9.200;2023-04-24T16:37:49;17.30;1.00
108;DHT22;49;48.530;9.200;2023-04-24T16:40:22;17.10;1.00
108;DHT22;49;48.530;9.200;2023-04-24T16:42:52;17.00;1.00
108;DHT22;49;48.530;9.200;2023-04-24T16:45:20;17.00;1.00
108;DHT22;49;48.530;9.200;2023-04-24T16:47:49;17.10;1.00
108;DHT22;49;48.530;9.200;2023-04-24T16:50:16;17.00;1.00
108;DHT22;49;48.530;9.200;2023-04-24T16:52:44;17.00;1.00
108;DHT22;49;48.530;9.200;2023-04-24T16:57:40;17.00;1.00
108;DHT22;49;48.530;9.200;2023-04-24T17:00:08;17.20;1.00
108;DHT22;49;48.530;9.200;2023-04-24T18:32:47;14.70;1.00
108;DHT22;49;48.530;9.200;2023-04-24T19:25:10;13.10;1.00
108;DHT22;49;48.530;9.200;2023-04-24T19:52:32;13.30;1.00
108;DHT22;49;48.530;9.200;2023-04-24T19:54:59;13.50;1.00
108;DHT22;49;48.530;9.200;2023-04-24T19:57:25;13.80;1.00
108;DHT22;49;48.530;9.200;2023-04-24T19:59:52;13.70;1.00
108;DHT22;49;48.530;9.200;2023-04-24T20:02:19;13.80;1.00
108;DHT22;49;48.530;9.200;2023-04-24T20:04:46;14.10;1.00
108;DHT22;49;48.530;9.200;2023-04-24T20:07:13;14.10;1.00
108;DHT22;49;48.530;9.200;2023-04-24T20:09:41;13.90;1.00
108;DHT22;49;48.530;9.200;2023-04-24T20:12:08;13.50;1.00
108;DHT22;49;48.530;9.200;2023-04-24T20:14:35;13.60;1.00
108;DHT22;49;48.530;9.200;2023-04-24T20:17:02;13.50;1.00
108;DHT22;49;48.530;9.200;2023-04-24T20:21:57;13.70;1.00
108;DHT22;49;48.530;9.200;2023-04-24T20:24:24;13.60;1.00
108;DHT22;49;48.530;9.200;2023-04-24T20:26:52;13.50;1.00
108;DHT22;49;48.530;9.200;2023-04-24T20:29:19;13.70;1.00
108;DHT22;49;48.530;9.200;2023-04-24T20:31:46;13.80;1.00
108;DHT22;49;48.530;9.200;2023-04-24T20:34:13;13.80;1.00
108;DHT22;49;48.530;9.200;2023-04-24T20:36:40;13.80;1.00
108;DHT22;49;48.530;9.200;2023-04-24T20:39:08;13.70;1.00
108;DHT22;49;48.530;9.200;2023-04-24T20:41:35;13.60;1.00
108;DHT22;49;48.530;9.200;2023-04-24T20:44:04;13.40;1.00
108;DHT22;49;48.530;9.200;2023-04-24T20:46:32;13.50;1.00
108;DHT22;49;48.530;9.200;2023-04-24T20:48:59;13.60;1.00
108;DHT22;49;48.530;9.200;2023-04-24T20:51:27;13.10;1.00
108;DHT22;49;48.530;9.200;2023-04-24T20:53:54;12.70;1.00
108;DHT22;49;48.530;9.200;2023-04-24T20:56:21;12.70;1.00
108;DHT22;49;48.530;9.200;2023-04-24T20:58:49;12.50;1.00
108;DHT22;49;48.530;9.200;2023-04-24T21:01:17;12.60;1.00
108;DHT22;49;48.530;9.200;2023-04-24T21:03:44;12.90;1.00
108;DHT22;49;48.530;9.200;2023-04-24T21:06:11;13.10;1.00
108;DHT22;49;48.530;9.200;2023-04-24T21:08:38;13.30;1.00
108;DHT22;49;48.530;9.200;2023-04-24T21:11:05;13.20;1.00
108;DHT22;49;48.530;9.200;2023-04-24T21:13:32;13.10;1.00
108;DHT22;49;48.530;9.200;2023-04-24T21:18:28;13.30;1.00
108;DHT22;49;48.530;9.200;2023-04-24T21:20:56;13.20;1.00
108;DHT22;49;48.530;9.200;2023-04-24T21:23:23;13.10;1.00
108;DHT22;49;48.530;9.200;2023-04-24T21:25:50;13.00;1.00
108;DHT22;49;48.530;9.200;2023-04-24T21:28:17;13.10;1.00
108;DHT22;49;48.530;9.200;2023-04-24T21:30:44;13.10;1.00
108;DHT22;49;48.530;9.200;2023-04-24T21:33:11;13.20;1.00
108;DHT22;49;48.530;9.200;2023-04-24T21:35:40;13.20;1.00
108;DHT22;49;48.530;9.200;2023-04-24T21:38:06;13.40;1.00
108;DHT22;49;48.530;9.200;2023-04-24T21:40:34;13.40;1.00
108;DHT22;49;48.530;9.200;2023-04-24T21:43:00;13.30;1.00
108;DHT22;49;48.530;9.200;2023-04-24T21:45:28;13.30;1.00
108;DHT22;49;48.530;9.200;2023-04-24T21:47:55;13.40;1.00
108;DHT22;49;48.530;9.200;2023-04-24T21:50:24;13.40;1.00
108;DHT22;49;48.530;9.200;2023-04-24T21:52:52;13.50;1.00
108;DHT22;49;48.530;9.200;2023-04-24T21:55:19;13.50;1.00
108;DHT22;49;48.530;9.200;2023-04-24T21:57:46;13.60;1.00
108;DHT22;49;48.530;9.200;2023-04-24T22:00:14;13.60;1.00
108;DHT22;49;48.530;9.200;2023-04-24T22:02:41;13.50;1.00
108;DHT22;49;48.530;9.200;2023-04-24T22:05:09;13.60;1.00
108;DHT22;49;48.530;9.200;2023-04-24T22:07:40;13.60;1.00
108;DHT22;49;48.530;9.200;2023-04-24T22:10:11;13.60;1.00
108;DHT22;49;48.530;9.200;2023-04-24T22:12:38;13.50;1.00
108;DHT22;49;48.530;9.200;2023-04-24T22:15:06;13.50;1.00
108;DHT22;49;48.530;9.200;2023-04-24T22:17:34;13.40;1.00
108;DHT22;49;48.530;9.200;2023-04-24T22:20:01;13.30;1.00
108;DHT22;49;48.530;9.200;2023-04-24T22:22:29;13.40;1.00
108;DHT22;49;48.530;9.200;2023-04-24T22:24:56;13.40;1.00
108;DHT22;49;48.530;9.200;2023-04-24T22:27:24;13.20;1.00
108;DHT22;49;48.530;9.200;2023-04-24T22:29:51;13.10;1.00
108;DHT22;49;48.530;9.200;2023-04-24T22:32:18;13.20;1.00
108;DHT22;49;48.530;9.200;2023-04-24T22:34:45;13.10;1.00
108;DHT22;49;48.530;9.200;2023-04-24T22:37:12;13.20;1.00
108;DHT22;49;48.530;9.200;2023-04-24T22:39:39;13.20;1.00
108;DHT22;49;48.530;9.200;2023-04-24T22:42:06;13.20;1.00
108;DHT22;49;48.530;9.200;2023-04-24T22:44:34;13.40;1.00
108;DHT22;49;48.530;9.200;2023-04-24T22:47:01;13.30;1.00
108;DHT22;49;48.530;9.200;2023-04-24T22:52:00;13.10;1.00
108;DHT22;49;48.530;9.200;2023-04-24T22:54:30;13.20;1.00
108;DHT22;49;48.530;9.200;2023-04-24T22:59:26;13.20;1.00
108;DHT22;49;48.530;9.200;2023-04-24T23:01:55;13.20;1.00
108;DHT22;49;48.530;9.200;2023-04-24T23:04:23;13.40;1.00
108;DHT22;49;48.530;9.200;2023-04-24T23:06:50;13.40;1.00
108;DHT22;49;48.530;9.200;2023-04-24T23:09:17;13.10;1.00
108;DHT22;49;48.530;9.200;2023-04-24T23:11:44;12.80;1.00
108;DHT22;49;48.530;9.200;2023-04-24T23:14:11;12.70;1.00
108;DHT22;49;48.530;9.200;2023-04-24T23:16:38;12.70;1.00
108;DHT22;49;48.530;9.200;2023-04-24T23:19:09;12.70;1.00
108;DHT22;49;48.530;9.200;2023-04-24T23:21:35;12.70;1.00
108;DHT22;49;48.530;9.200;2023-04-24T23:24:02;12.70;1.00
108;DHT22;49;48.530;9.200;2023-04-24T23:26:29;12.60;1.00
108;DHT22;49;48.530;9.200;2023-04-24T23:28:56;12.60;1.00
108;DHT22;49;48.530;9.200;2023-04-24T23:31:23;12.60;1.00
108;DHT22;49;48.530;9.200;2023-04-24T23:33:50;12.70;1.00
108;DHT22;49;48.530;9.200;2023-04-24T23:36:18;12.80;1.00
108;DHT22;49;48.530;9.200;2023-04-24T23:38:45;13.00;1.00
108;DHT22;49;48.530;9.200;2023-04-24T23:41:12;12.80;1.00
108;DHT22;49;48.530;9.200;2023-04-24T23:46:07;13.10;1.00
108;DHT22;49;48.530;9.200;2023-04-24T23:48:34;13.20;1.00
108;DHT22;49;48.530;9.200;2023-04-24T23:51:01;13.20;1.00
108;DHT22;49;48.530;9.200;2023-04-24T23:53:29;13.20;1.00
108;DHT22;49;48.530;9.200;2023-04-24T23:55:57;13.10;1.00
108;DHT22;49;48.530;9.200;2023-04-24T23:58:24;13.00;1.00
